Tributaries of Vltava river

river Berounka - water gauge Beroun

Date and time (UTC) H (cm) Q (m³/s)
28. 9. 2022 14:20 107 27
28. 9. 2022 14:00 106 26
28. 9. 2022 13:00 106 26
28. 9. 2022 12:00 107 27
28. 9. 2022 11:00 106 26
28. 9. 2022 10:00 106 26
28. 9. 2022 09:00 106 26
28. 9. 2022 08:00 105 26
28. 9. 2022 07:00 106 26
28. 9. 2022 06:00 106 26
28. 9. 2022 05:00 106 26
28. 9. 2022 04:00 105 26
28. 9. 2022 03:00 106 26
28. 9. 2022 02:00 106 26

H - water level, Q - discharge

river Sázava - water gauge Nespeky

Date and time (UTC) H (cm) Q (m³/s)
28. 9. 2022 14:20 83 16.6
28. 9. 2022 14:00 82 16
28. 9. 2022 13:00 82 16
28. 9. 2022 12:00 81 16
28. 9. 2022 11:00 81 16
28. 9. 2022 10:00 81 16
28. 9. 2022 09:00 81 16
28. 9. 2022 08:00 81 16
28. 9. 2022 07:00 81 16
28. 9. 2022 06:00 82 16
28. 9. 2022 05:00 82 16
28. 9. 2022 04:00 81 16
28. 9. 2022 03:00 81 16
28. 9. 2022 02:00 82 16

H - water level, Q - discharge

river Otava - water gauge Písek

Date and time (UTC) H (cm) Q (m³/s)
28. 9. 2022 14:10 125 36.7
28. 9. 2022 14:00 125 37
28. 9. 2022 13:00 122 35
28. 9. 2022 12:00 116 32
28. 9. 2022 11:00 111 30
28. 9. 2022 10:00 106 27
28. 9. 2022 09:00 94 22
28. 9. 2022 08:00 97 23
28. 9. 2022 07:00 92 21
28. 9. 2022 06:00 87 20
28. 9. 2022 05:00 85 19
28. 9. 2022 04:00 85 19
28. 9. 2022 03:00 84 19
28. 9. 2022 02:00 83 18

H - water level, Q - discharge

river Lužnice - water gauge Bechyně

Date and time (UTC) H (cm) Q (m³/s)
28. 9. 2022 14:20 167 33.1
28. 9. 2022 14:00 167 33
28. 9. 2022 13:00 168 34
28. 9. 2022 12:00 167 33
28. 9. 2022 11:00 167 33
28. 9. 2022 10:00 167 33
28. 9. 2022 09:00 167 33
28. 9. 2022 08:00 167 33
28. 9. 2022 07:00 167 33
28. 9. 2022 06:00 167 33
28. 9. 2022 05:00 167 33
28. 9. 2022 04:00 167 33
28. 9. 2022 03:00 166 33
28. 9. 2022 02:00 166 32

H - water level, Q - discharge
Source data
Labe Basin Vltava Basin Povodí Moravy ČHMÚ